West Lake — 3FHS5 — position and weather

sailwx.info

Track history (hours):
 
Tides and Currents Weather Stations Pressure Air Temp Water Temp Dewpoint Dewpoint Depression Visibility Wind Speed Wind Dir Waves Ship Positions

West Lake

Last reported at 2017-Oct-19 12:00 UTC. Time now 2017-Nov-19 08:52 UTC.
Position S 28°21' E 032°39'.
Warning: this ship's position is 30 days out of date.

Length 188 m; draft 6.1 m.

Type: Cargo ship. MMSI: 355304000.

Date/timePositionNaut miles runAvg speedWind from/ knotsBaromVisibWave heightAir tempDewpointWater temp
2017-Oct-19 12:00S 28°21' E 032°39'49 9.4
2017-Oct-19 06:49S 29°08' E 032°21'3 8.4
2017-Oct-19 06:26S 29°11' E 032°20'4 8.3
2017-Oct-19 05:54S 29°15' E 032°18'3 8.3
2017-Oct-19 05:30S 29°17' E 032°16'4 8.3
2017-Oct-19 05:01S 29°20' E 032°13'4 8.2
2017-Oct-19 04:30S 29°24' E 032°10'14 8.1
2017-Oct-19 02:45S 29°35' E 031°59'2 8.0
2017-Oct-19 02:27S 29°36' E 031°58'4 8.0
2017-Oct-19 02:01S 29°39' E 031°55'4 7.7
2017-Oct-19 01:30S 29°42' E 031°51'4 7.5
2017-Oct-19 01:01S 29°44' E 031°48'4 7.5
2017-Oct-19 00:30S 29°47' E 031°45'4 7.8
2017-Oct-19 00:00S 29°50' E 031°42'4 8.2
2017-Oct-18 23:31S 29°53' E 031°39'4 8.6
2017-Oct-18 23:00S 29°56' E 031°36'4 8.6
2017-Oct-18 22:30S 29°59' E 031°32'5 9.0
2017-Oct-18 22:00S 30°02' E 031°29'5 9.5
2017-Oct-18 21:30S 30°06' E 031°25'5 9.3
2017-Oct-18 21:00S 30°09' E 031°21'5 9.1
2017-Oct-18 20:30S 30°13' E 031°18'5 9.2
2017-Oct-18 20:01S 30°16' E 031°14'5 9.7
2017-Oct-18 19:30S 30°20' E 031°11'5 9.9
2017-Oct-18 19:01S 30°24' E 031°07'510.6
2017-Oct-18 18:30S 30°28' E 031°04'  
Track history (hours):
 
Tides and Currents Weather Stations Pressure Air Temp Water Temp Dewpoint Dewpoint Depression Visibility Wind Speed Wind Dir Waves Ship Positions

West Lake

Last reported at 2017-Oct-19 12:00 UTC. Time now 2017-Nov-19 08:52 UTC.
Position S 28°21' E 032°39'.
Warning: this ship's position is 30 days out of date.

Length 188 m; draft 6.1 m.

Type: Cargo ship. MMSI: 355304000.

Date/timePositionNaut miles runAvg speedWind from/ knotsBaromVisibWave heightAir tempDewpointWater temp
2017-Oct-19 12:00S 28°21' E 032°39'49 9.4
2017-Oct-19 06:49S 29°08' E 032°21'3 8.4
2017-Oct-19 06:26S 29°11' E 032°20'4 8.3
2017-Oct-19 05:54S 29°15' E 032°18'3 8.3
2017-Oct-19 05:30S 29°17' E 032°16'4 8.3
2017-Oct-19 05:01S 29°20' E 032°13'4 8.2
2017-Oct-19 04:30S 29°24' E 032°10'14 8.1
2017-Oct-19 02:45S 29°35' E 031°59'2 8.0
2017-Oct-19 02:27S 29°36' E 031°58'4 8.0
2017-Oct-19 02:01S 29°39' E 031°55'4 7.7
2017-Oct-19 01:30S 29°42' E 031°51'4 7.5
2017-Oct-19 01:01S 29°44' E 031°48'4 7.5
2017-Oct-19 00:30S 29°47' E 031°45'4 7.8
2017-Oct-19 00:00S 29°50' E 031°42'4 8.2
2017-Oct-18 23:31S 29°53' E 031°39'4 8.6
2017-Oct-18 23:00S 29°56' E 031°36'4 8.6
2017-Oct-18 22:30S 29°59' E 031°32'5 9.0
2017-Oct-18 22:00S 30°02' E 031°29'5 9.5
2017-Oct-18 21:30S 30°06' E 031°25'5 9.3
2017-Oct-18 21:00S 30°09' E 031°21'5 9.1
2017-Oct-18 20:30S 30°13' E 031°18'5 9.2
2017-Oct-18 20:01S 30°16' E 031°14'5 9.7
2017-Oct-18 19:30S 30°20' E 031°11'5 9.9
2017-Oct-18 19:01S 30°24' E 031°07'510.6
2017-Oct-18 18:30S 30°28' E 031°04'  

Dump ship's entire track history